createdAt,value
2017-11-24T00:00:47.949Z,0
2017-11-24T00:01:57.954Z,0
2017-11-24T00:03:07.962Z,0
2017-11-24T00:04:17.700Z,0
2017-11-24T00:05:27.462Z,0
2017-11-24T00:06:37.480Z,0
2017-11-24T00:07:47.214Z,0
2017-11-24T00:08:57.218Z,0
2017-11-24T00:10:06.953Z,0
2017-11-24T00:11:16.959Z,0
2017-11-24T00:12:26.713Z,0
2017-11-24T00:13:38.476Z,0
2017-11-24T00:14:48.523Z,0
2017-11-24T00:15:58.265Z,0
2017-11-24T00:17:08.003Z,0
2017-11-24T00:18:17.748Z,0
2017-11-24T00:19:27.762Z,0
2017-11-24T00:20:37.787Z,0
2017-11-24T00:21:47.794Z,0
2017-11-24T00:22:57.531Z,0
2017-11-24T00:24:07.555Z,0
2017-11-24T00:25:17.296Z,0
2017-11-24T00:26:27.036Z,0
2017-11-24T00:27:37.042Z,0
2017-11-24T00:28:47.042Z,0
2017-11-24T00:29:57.090Z,0
2017-11-24T00:31:07.119Z,0
2017-11-24T00:32:17.132Z,0
2017-11-24T00:33:27.135Z,0
2017-11-24T00:34:37.153Z,0
2017-11-24T00:35:47.157Z,0
2017-11-24T00:36:57.231Z,0
2017-11-24T00:38:06.699Z,0
2017-11-24T00:39:16.440Z,0
2017-11-24T00:40:26.446Z,0
2017-11-24T00:41:36.453Z,0
2017-11-24T00:42:46.462Z,0
2017-11-24T00:43:56.474Z,0
2017-11-24T00:45:06.506Z,0
2017-11-24T00:46:16.246Z,0
2017-11-24T00:47:25.979Z,0
2017-11-24T00:48:35.989Z,0
2017-11-24T00:49:45.723Z,0
2017-11-24T00:50:55.743Z,0
2017-11-24T00:52:05.485Z,0
2017-11-24T00:53:15.499Z,0
2017-11-24T00:54:25.510Z,0
2017-11-24T00:55:35.524Z,0
2017-11-24T00:56:45.521Z,0
2017-11-24T00:57:55.534Z,0
2017-11-24T00:59:05.548Z,0
2017-11-24T01:00:15.283Z,0
2017-11-24T01:01:24.752Z,0
2017-11-24T01:02:34.769Z,0
2017-11-24T01:03:44.507Z,0
2017-11-24T01:04:54.517Z,0
2017-11-24T01:06:04.530Z,0
2017-11-24T01:07:14.268Z,0
2017-11-24T01:08:24.287Z,0
2017-11-24T01:09:34.310Z,0
2017-11-24T01:10:44.342Z,0
2017-11-24T01:11:54.352Z,0
2017-11-24T01:13:04.365Z,0
2017-11-24T01:14:14.369Z,0
2017-11-24T01:15:24.375Z,0
2017-11-24T01:16:33.870Z,0
2017-11-24T01:17:43.622Z,0
2017-11-24T01:18:53.635Z,0
2017-11-24T01:20:03.636Z,0
2017-11-24T01:21:13.664Z,0
2017-11-24T01:22:23.679Z,0
2017-11-24T01:23:33.683Z,0
2017-11-24T01:24:43.708Z,0
2017-11-24T01:25:53.207Z,0
2017-11-24T01:27:02.940Z,0
2017-11-24T01:28:12.954Z,0
2017-11-24T01:29:22.970Z,0
2017-11-24T01:30:32.973Z,0
2017-11-24T01:31:42.976Z,0
2017-11-24T01:32:52.988Z,0
2017-11-24T01:34:03.034Z,0
2017-11-24T01:35:13.048Z,0
2017-11-24T01:36:23.043Z,0
2017-11-24T01:37:32.779Z,0
2017-11-24T01:38:42.792Z,0
2017-11-24T01:39:52.806Z,0
2017-11-24T01:41:02.810Z,0
2017-11-24T01:42:12.810Z,0
2017-11-24T01:43:22.548Z,0
2017-11-24T01:44:32.563Z,0
2017-11-24T01:45:42.296Z,0
2017-11-24T01:46:52.042Z,0
2017-11-24T01:48:02.049Z,0
2017-11-24T01:49:12.058Z,0
2017-11-24T01:50:22.064Z,0
2017-11-24T01:51:31.814Z,0
2017-11-24T01:52:45.817Z,0
2017-11-24T01:53:55.829Z,0
2017-11-24T01:55:05.835Z,0
2017-11-24T01:56:15.836Z,0
2017-11-24T01:57:25.843Z,0
2017-11-24T01:58:35.578Z,0
2017-11-24T01:59:45.597Z,0
2017-11-24T02:00:55.606Z,0
2017-11-24T02:02:05.347Z,0
2017-11-24T02:03:15.081Z,0
2017-11-24T02:04:25.127Z,0
2017-11-24T02:05:35.133Z,0
2017-11-24T02:06:45.148Z,0
2017-11-24T02:07:55.167Z,0
2017-11-24T02:09:05.168Z,0
2017-11-24T02:10:15.181Z,0
2017-11-24T02:11:24.671Z,0
2017-11-24T02:12:34.678Z,0
2017-11-24T02:13:44.706Z,0
2017-11-24T02:14:54.437Z,0
2017-11-24T02:16:04.451Z,0
2017-11-24T02:17:14.478Z,0
2017-11-24T02:18:24.499Z,0
2017-11-24T02:19:34.254Z,0
2017-11-24T02:20:44.000Z,0
2017-11-24T02:21:54.011Z,0
2017-11-24T02:23:03.797Z,0
2017-11-24T02:24:13.547Z,0
2017-11-24T02:25:23.283Z,0
2017-11-24T02:26:33.285Z,0
2017-11-24T02:27:43.323Z,0
2017-11-24T02:28:53.351Z,0
2017-11-24T02:30:03.372Z,0
2017-11-24T02:31:13.183Z,0
2017-11-24T02:32:23.237Z,0
2017-11-24T02:33:33.263Z,0
2017-11-24T02:34:43.285Z,0
2017-11-24T02:35:53.314Z,0
2017-11-24T02:37:03.329Z,0
2017-11-24T02:38:13.397Z,0
2017-11-24T02:39:23.408Z,0
2017-11-24T02:40:33.435Z,0
2017-11-24T02:41:43.458Z,0
2017-11-24T02:42:53.488Z,0
2017-11-24T02:44:03.501Z,0
2017-11-24T02:45:13.519Z,0
2017-11-24T02:46:23.524Z,0
2017-11-24T02:47:33.563Z,0
2017-11-24T02:48:43.578Z,0
2017-11-24T02:49:53.593Z,0
2017-11-24T02:51:03.642Z,0
2017-11-24T02:52:13.378Z,0
2017-11-24T02:53:23.431Z,0
2017-11-24T02:54:33.452Z,0
2017-11-24T02:55:43.486Z,0
2017-11-24T02:56:53.219Z,0
2017-11-24T02:58:03.234Z,0
2017-11-24T02:59:13.237Z,0
2017-11-24T03:00:22.984Z,0
2017-11-24T03:01:32.992Z,0
2017-11-24T03:02:42.728Z,0
2017-11-24T03:03:52.742Z,0
2017-11-24T03:05:02.762Z,0
2017-11-24T03:06:12.496Z,0
2017-11-24T03:07:22.500Z,0
2017-11-24T03:08:32.509Z,0
2017-11-24T03:09:42.517Z,0
2017-11-24T03:10:52.519Z,0
2017-11-24T03:12:02.517Z,0
2017-11-24T03:13:12.533Z,0
2017-11-24T03:14:22.266Z,0
2017-11-24T03:15:32.277Z,0
2017-11-24T03:16:42.319Z,0
2017-11-24T03:17:52.351Z,0
2017-11-24T03:19:02.094Z,0
2017-11-24T03:20:12.112Z,0
2017-11-24T03:21:22.121Z,0
2017-11-24T03:22:32.140Z,0
2017-11-24T03:23:42.152Z,0
2017-11-24T03:24:51.351Z,0
2017-11-24T03:26:01.138Z,0
2017-11-24T03:27:11.186Z,0
2017-11-24T03:28:20.920Z,0
2017-11-24T03:29:30.660Z,0
2017-11-24T03:30:40.708Z,0
2017-11-24T03:31:50.721Z,0
2017-11-24T03:33:00.726Z,0
2017-11-24T03:34:10.468Z,0
2017-11-24T03:35:20.483Z,0
2017-11-24T03:36:30.492Z,0
2017-11-24T03:37:40.226Z,0
2017-11-24T03:38:50.229Z,0
2017-11-24T03:40:00.238Z,0
2017-11-24T03:41:09.970Z,0
2017-11-24T03:42:19.717Z,0
2017-11-24T03:43:29.721Z,0
2017-11-24T03:44:39.741Z,0
2017-11-24T03:45:49.749Z,0
2017-11-24T03:46:59.763Z,0
2017-11-24T03:48:09.783Z,0
2017-11-24T03:49:19.789Z,0
2017-11-24T03:50:29.789Z,0
2017-11-24T03:51:39.795Z,0
2017-11-24T03:52:49.571Z,0
2017-11-24T03:53:59.311Z,0
2017-11-24T03:55:09.321Z,0
2017-11-24T03:56:19.331Z,0
2017-11-24T03:57:29.336Z,0
2017-11-24T03:58:39.076Z,0
2017-11-24T03:59:49.083Z,0
2017-11-24T04:03:34.074Z,0
2017-11-24T04:04:44.104Z,0
2017-11-24T04:05:54.106Z,0
2017-11-24T04:07:03.850Z,0
2017-11-24T04:08:13.319Z,0
2017-11-24T04:09:23.321Z,0
2017-11-24T04:10:33.329Z,0
2017-11-24T04:11:43.332Z,0
2017-11-24T04:12:53.077Z,0
2017-11-24T04:14:03.104Z,0
2017-11-24T04:15:13.115Z,0
2017-11-24T04:16:23.130Z,0
2017-11-24T04:17:33.138Z,0
2017-11-24T04:18:43.152Z,0
2017-11-24T04:19:53.164Z,0
2017-11-24T04:21:03.191Z,0
2017-11-24T04:22:13.197Z,0
2017-11-24T04:23:23.200Z,0
2017-11-24T04:24:33.211Z,0
2017-11-24T04:25:43.227Z,0
2017-11-24T04:26:53.281Z,0
2017-11-24T04:28:03.284Z,0
2017-11-24T04:29:13.027Z,0
2017-11-24T04:30:22.764Z,0
2017-11-24T04:31:32.776Z,0
2017-11-24T04:32:42.785Z,0
2017-11-24T04:33:52.798Z,0
2017-11-24T04:35:02.544Z,0
2017-11-24T04:36:12.300Z,0
2017-11-24T04:37:22.310Z,0
2017-11-24T04:38:32.065Z,0
2017-11-24T04:39:41.823Z,0
2017-11-24T04:40:51.840Z,0
2017-11-24T04:42:01.843Z,0
2017-11-24T04:43:11.599Z,0
2017-11-24T04:44:21.625Z,0
2017-11-24T04:45:31.632Z,0
2017-11-24T04:46:41.701Z,0
2017-11-24T04:47:51.702Z,0
2017-11-24T04:49:01.717Z,0
2017-11-24T04:50:11.725Z,0
2017-11-24T04:51:21.465Z,0
2017-11-24T04:52:31.485Z,0
2017-11-24T04:53:41.227Z,0
2017-11-24T04:54:50.960Z,0
2017-11-24T04:56:00.962Z,0
2017-11-24T04:57:10.968Z,0
2017-11-24T04:58:20.985Z,0
2017-11-24T04:59:30.992Z,0
2017-11-24T05:00:40.759Z,0
2017-11-24T05:01:50.763Z,0
2017-11-24T05:03:00.790Z,0
2017-11-24T05:04:10.806Z,0
2017-11-24T05:05:20.556Z,0
2017-11-24T05:06:30.564Z,0
2017-11-24T05:07:40.583Z,0
2017-11-24T05:08:50.591Z,0
2017-11-24T05:10:00.599Z,0
2017-11-24T05:11:10.339Z,0
2017-11-24T05:12:20.074Z,0
2017-11-24T05:13:30.110Z,0
2017-11-24T05:14:40.113Z,0
2017-11-24T05:15:50.130Z,0
2017-11-24T05:17:00.136Z,0
2017-11-24T05:18:10.136Z,0
2017-11-24T05:19:20.144Z,0
2017-11-24T05:20:29.899Z,0
2017-11-24T05:21:39.630Z,0
2017-11-24T05:22:49.372Z,0
2017-11-24T05:23:59.390Z,0
2017-11-24T05:25:09.155Z,0
2017-11-24T05:26:19.159Z,0
2017-11-24T05:27:29.160Z,0
2017-11-24T05:28:38.908Z,0
2017-11-24T05:29:48.913Z,0
2017-11-24T05:30:58.928Z,0
2017-11-24T05:32:08.395Z,0
2017-11-24T05:33:18.405Z,0
2017-11-24T05:34:28.413Z,0
2017-11-24T05:35:38.178Z,0
2017-11-24T05:36:48.191Z,0
2017-11-24T05:37:57.931Z,0
2017-11-24T05:39:07.960Z,0
2017-11-24T05:40:17.970Z,0
2017-11-24T05:41:27.982Z,0
2017-11-24T05:42:37.724Z,0
2017-11-24T05:43:47.467Z,0
2017-11-24T05:44:57.467Z,0
2017-11-24T05:46:07.487Z,0
2017-11-24T05:47:17.498Z,0
2017-11-24T05:48:27.235Z,0
2017-11-24T05:49:37.264Z,0
2017-11-24T05:50:47.031Z,0
2017-11-24T05:51:57.043Z,0
2017-11-24T05:53:07.053Z,0
2017-11-24T05:54:17.066Z,0
2017-11-24T05:55:27.072Z,0
2017-11-24T05:56:37.089Z,0
2017-11-24T05:57:47.103Z,0
2017-11-24T05:58:57.115Z,0
2017-11-24T06:00:07.123Z,0
2017-11-24T06:01:16.873Z,0
2017-11-24T06:02:26.889Z,0
2017-11-24T06:03:37.023Z,0
2017-11-24T06:04:47.154Z,0
2017-11-24T06:05:57.402Z,0
2017-11-24T06:07:08.031Z,0
2017-11-24T06:08:17.633Z,0
2017-11-24T06:09:27.947Z,0
2017-11-24T06:10:38.243Z,0
2017-11-24T06:11:49.555Z,0
2017-11-24T06:13:01.579Z,0
2017-11-24T06:14:12.046Z,0
2017-11-24T06:15:23.555Z,0
2017-11-24T06:16:34.006Z,0
2017-11-24T06:17:44.149Z,0
2017-11-24T06:18:54.042Z,0
2017-11-24T06:20:04.370Z,0
2017-11-24T06:21:14.818Z,0
2017-11-24T06:22:24.919Z,0
2017-11-24T06:23:37.704Z,0
2017-11-24T06:24:47.745Z,0
2017-11-24T06:25:57.749Z,0
2017-11-24T06:27:07.487Z,0
2017-11-24T06:28:17.499Z,0
2017-11-24T06:29:28.918Z,0
2017-11-24T06:30:39.990Z,0
2017-11-24T06:31:50.420Z,0
2017-11-24T06:33:01.259Z,0
2017-11-24T06:34:11.593Z,0
2017-11-24T06:35:21.999Z,0
2017-11-24T06:36:32.745Z,0
2017-11-24T06:37:42.599Z,0
2017-11-24T06:38:52.433Z,0
2017-11-24T06:40:02.816Z,0
2017-11-24T06:41:13.197Z,0
2017-11-24T06:42:23.561Z,0
2017-11-24T06:43:34.561Z,0
2017-11-24T06:44:45.860Z,0
2017-11-24T06:45:57.745Z,0
2017-11-24T06:47:09.432Z,0
2017-11-24T06:48:20.235Z,0
2017-11-24T06:49:30.362Z,0
2017-11-24T06:50:40.930Z,0
2017-11-24T06:51:51.251Z,0
2017-11-24T06:53:01.825Z,4
2017-11-24T06:54:11.930Z,4
2017-11-24T06:55:22.546Z,0
2017-11-24T06:56:32.438Z,0
2017-11-24T06:57:42.170Z,4
2017-11-24T06:58:51.940Z,0
2017-11-24T07:00:01.973Z,4
2017-11-24T07:01:12.768Z,4
2017-11-24T07:02:23.459Z,8
2017-11-24T07:03:34.157Z,8
2017-11-24T07:04:44.499Z,8
2017-11-24T07:05:54.711Z,8
2017-11-24T07:07:04.485Z,12
2017-11-24T07:08:14.520Z,12
2017-11-24T07:09:24.875Z,12
2017-11-24T07:10:35.545Z,20
2017-11-24T07:11:45.762Z,20
2017-11-24T07:12:55.870Z,20
2017-11-24T07:14:05.767Z,28
2017-11-24T07:15:16.076Z,28
2017-11-24T07:16:27.122Z,32
2017-11-24T07:17:38.288Z,40
2017-11-24T07:18:48.786Z,44
2017-11-24T07:19:59.805Z,48
2017-11-24T07:21:11.527Z,56
2017-11-24T07:22:22.853Z,60
2017-11-24T07:23:33.591Z,68
2017-11-24T07:24:43.843Z,72
2017-11-24T07:25:53.904Z,84
2017-11-24T07:27:04.040Z,92
2017-11-24T07:28:14.445Z,104
2017-11-24T07:29:25.119Z,112
2017-11-24T07:30:35.276Z,124
2017-11-24T07:31:45.032Z,132
2017-11-24T07:32:55.034Z,144
2017-11-24T07:34:04.787Z,160
2017-11-24T07:35:15.304Z,176
2017-11-24T07:36:25.914Z,192
2017-11-24T07:37:36.784Z,204
2017-11-24T07:38:47.602Z,224
2017-11-24T07:39:58.111Z,240
2017-11-24T07:41:08.207Z,260
2017-11-24T07:42:17.963Z,280
2017-11-24T07:43:27.977Z,308
2017-11-24T07:44:37.719Z,336
2017-11-24T07:45:47.745Z,360
2017-11-24T07:46:56.936Z,392
2017-11-24T07:48:06.939Z,420
2017-11-24T07:49:16.944Z,448
2017-11-24T07:50:26.956Z,476
2017-11-24T07:51:36.971Z,512
2017-11-24T07:52:46.987Z,544
2017-11-24T07:53:56.992Z,580
2017-11-24T07:55:06.730Z,612
2017-11-24T07:56:16.745Z,640
2017-11-24T07:57:26.749Z,664
2017-11-24T07:58:36.756Z,692
2017-11-24T07:59:46.773Z,716
2017-11-24T08:00:56.814Z,748
2017-11-24T08:02:05.958Z,764
2017-11-24T08:03:15.694Z,780
2017-11-24T08:04:25.715Z,788
2017-11-24T08:05:35.724Z,812
2017-11-24T08:06:45.479Z,848
2017-11-24T08:07:55.220Z,880
2017-11-24T08:09:07.259Z,912
2017-11-24T08:10:17.267Z,936
2017-11-24T08:11:27.291Z,964
2017-11-24T08:12:37.310Z,984
2017-11-24T08:13:47.064Z,996
2017-11-24T08:14:57.075Z,992
2017-11-24T08:16:06.822Z,996
2017-11-24T08:17:16.571Z,996
2017-11-24T08:18:26.579Z,988
2017-11-24T08:19:36.314Z,976
2017-11-24T08:20:46.331Z,972
2017-11-24T08:21:56.344Z,972
2017-11-24T08:23:06.100Z,968
2017-11-24T08:24:16.112Z,968
2017-11-24T08:25:26.125Z,948
2017-11-24T08:26:36.130Z,944
2017-11-24T08:27:46.143Z,960
2017-11-24T08:28:55.879Z,980
2017-11-24T08:30:05.890Z,996
2017-11-24T08:31:15.647Z,1016
2017-11-24T08:32:25.390Z,1040
2017-11-24T08:33:35.134Z,1068
2017-11-24T08:34:44.599Z,1100
2017-11-24T08:35:54.355Z,1148
2017-11-24T08:37:04.100Z,1204
2017-11-24T08:38:14.117Z,1220
2017-11-24T08:39:24.121Z,1252
2017-11-24T08:40:34.137Z,1276
2017-11-24T08:41:44.141Z,1332
2017-11-24T08:42:54.152Z,1380
2017-11-24T08:44:04.167Z,1436
2017-11-24T08:45:14.197Z,1464
2017-11-24T08:46:24.212Z,1484
2017-11-24T08:47:34.214Z,1504
2017-11-24T08:48:43.950Z,1508
2017-11-24T08:49:53.964Z,1520
2017-11-24T08:51:03.969Z,1496
2017-11-24T08:52:13.706Z,1444
2017-11-24T08:53:23.726Z,1428
2017-11-24T08:54:33.745Z,1436
2017-11-24T08:55:43.665Z,1484
2017-11-24T08:56:53.960Z,1508
2017-11-24T08:58:03.973Z,1528
2017-11-24T08:59:13.992Z,1616
2017-11-24T09:00:24.010Z,1700
2017-11-24T09:01:34.080Z,1748
2017-11-24T09:02:44.086Z,1864
2017-11-24T09:03:53.824Z,1960
2017-11-24T09:05:03.577Z,1992
2017-11-24T09:06:13.609Z,2028
2017-11-24T09:07:23.347Z,2048
2017-11-24T09:08:33.366Z,2076
2017-11-24T09:09:43.109Z,2100
2017-11-24T09:10:53.121Z,2120
2017-11-24T09:12:03.133Z,2144
2017-11-24T09:13:12.890Z,2172
2017-11-24T09:14:22.906Z,2192
2017-11-24T09:15:32.917Z,2216
2017-11-24T09:16:42.662Z,2236
2017-11-24T09:17:52.400Z,2264
2017-11-24T09:19:02.138Z,2292
2017-11-24T09:20:12.150Z,2316
2017-11-24T09:21:22.152Z,2380
2017-11-24T09:22:32.194Z,2448
2017-11-24T09:23:42.217Z,2528
2017-11-24T09:24:52.230Z,2612
2017-11-24T09:26:01.974Z,2676
2017-11-24T09:27:11.705Z,2712
2017-11-24T09:28:21.447Z,2748
2017-11-24T09:29:31.459Z,2752
2017-11-24T09:30:41.467Z,2740
2017-11-24T09:31:51.225Z,2732
2017-11-24T09:33:00.966Z,2680
2017-11-24T09:34:10.984Z,2632
2017-11-24T09:35:21.004Z,2516
2017-11-24T09:36:31.013Z,2436
2017-11-24T09:37:40.758Z,2420
2017-11-24T09:38:50.788Z,2432
2017-11-24T09:40:00.255Z,2436
2017-11-24T09:41:10.300Z,2444
2017-11-24T09:42:20.033Z,2452
2017-11-24T09:43:30.059Z,2464
2017-11-24T09:44:39.816Z,2476
2017-11-24T09:45:49.548Z,2488
2017-11-24T09:46:59.585Z,2496
2017-11-24T09:48:10.257Z,2508
2017-11-24T09:49:20.278Z,2520
2017-11-24T09:50:29.479Z,2532
2017-11-24T09:51:39.214Z,2544
2017-11-24T09:52:49.232Z,2552
2017-11-24T09:53:58.974Z,2544
2017-11-24T09:55:09.015Z,2548
2017-11-24T09:56:18.756Z,2604
2017-11-24T09:57:28.508Z,2616
2017-11-24T09:58:37.431Z,2636
2017-11-24T09:59:47.450Z,2648
2017-11-24T10:00:57.475Z,2660
2017-11-24T10:02:07.217Z,2668
2017-11-24T10:03:17.222Z,2672
2017-11-24T10:04:26.760Z,2680
2017-11-24T10:05:36.492Z,2684
2017-11-24T10:06:45.967Z,2680
2017-11-24T10:07:55.982Z,2680
2017-11-24T10:09:05.986Z,2668
2017-11-24T10:10:15.729Z,2680
2017-11-24T10:11:25.743Z,2700
2017-11-24T10:12:35.485Z,2636
2017-11-24T10:13:45.496Z,2700
2017-11-24T10:14:54.975Z,2732
2017-11-24T10:16:04.989Z,2772
2017-11-24T10:17:18.237Z,2760
2017-11-24T10:18:28.238Z,2788
2017-11-24T10:19:37.978Z,2816
2017-11-24T10:20:47.990Z,2848
2017-11-24T10:21:57.733Z,2872
2017-11-24T10:23:07.473Z,2860
2017-11-24T10:24:17.477Z,2920
2017-11-24T10:25:27.481Z,3624
2017-11-24T10:26:37.228Z,8424
2017-11-24T10:27:47.239Z,11704
2017-11-24T10:28:57.251Z,11980
2017-11-24T10:30:07.269Z,12252
2017-11-24T10:31:17.340Z,12408
2017-11-24T10:32:27.375Z,12764
2017-11-24T10:33:37.395Z,12788
2017-11-24T10:34:47.405Z,12724
2017-11-24T10:35:57.412Z,13280
2017-11-24T10:37:07.429Z,13760
2017-11-24T10:38:17.440Z,13536
2017-11-24T10:39:27.452Z,13408
2017-11-24T10:40:37.198Z,12164
2017-11-24T10:41:47.213Z,10848
2017-11-24T10:42:57.003Z,7952
2017-11-24T10:44:07.015Z,7128
2017-11-24T10:45:17.030Z,5924
2017-11-24T10:46:27.044Z,4860
2017-11-24T10:47:36.814Z,4624
2017-11-24T10:48:46.835Z,4744
2017-11-24T10:49:56.842Z,5228
2017-11-24T10:51:06.863Z,5680
2017-11-24T10:52:16.881Z,5892
2017-11-24T10:53:26.890Z,6244
2017-11-24T10:54:36.635Z,6952
2017-11-24T10:55:46.105Z,6048
2017-11-24T10:56:55.574Z,6296
2017-11-24T10:58:05.044Z,6724
2017-11-24T10:59:14.795Z,7368
2017-11-24T11:00:24.847Z,7716
2017-11-24T11:01:34.604Z,9056
2017-11-24T11:02:44.344Z,9508
2017-11-24T11:03:54.364Z,13440
2017-11-24T11:05:04.098Z,18272
2017-11-24T11:06:13.847Z,18656
2017-11-24T11:07:23.848Z,18432
2017-11-24T11:08:33.860Z,18080
2017-11-24T11:09:43.602Z,18144
2017-11-24T11:10:53.607Z,18240
2017-11-24T11:12:03.648Z,18048
2017-11-24T11:13:13.670Z,17984
2017-11-24T11:14:23.409Z,17728
2017-11-24T11:15:33.434Z,17440
2017-11-24T11:16:43.451Z,17152
2017-11-24T11:17:53.188Z,16992
2017-11-24T11:19:03.201Z,17280
2017-11-24T11:20:12.670Z,17088
2017-11-24T11:21:22.676Z,17088
2017-11-24T11:22:32.698Z,17280
2017-11-24T11:23:42.457Z,17440
2017-11-24T11:24:51.937Z,16928
2017-11-24T11:26:01.943Z,16736
2017-11-24T11:27:11.687Z,16928
2017-11-24T11:28:21.699Z,16992
2017-11-24T11:29:31.439Z,16960
2017-11-24T11:30:41.470Z,17312
2017-11-24T11:31:51.489Z,17216
2017-11-24T11:33:01.237Z,17120
2017-11-24T11:34:11.003Z,17376
2017-11-24T11:35:21.027Z,17920
2017-11-24T11:36:31.046Z,18432
2017-11-24T11:37:40.785Z,18784
2017-11-24T11:38:50.799Z,19648
2017-11-24T11:40:00.542Z,20256
2017-11-24T11:41:10.287Z,20448
2017-11-24T11:42:20.304Z,21664
2017-11-24T11:43:30.342Z,19168
2017-11-24T11:44:40.093Z,14816
2017-11-24T11:45:50.107Z,13312
2017-11-24T11:47:00.118Z,12128
2017-11-24T11:48:10.144Z,11236
2017-11-24T11:49:20.156Z,10788
2017-11-24T11:50:30.211Z,10560
2017-11-24T11:51:40.002Z,10372
2017-11-24T11:52:49.736Z,10328
2017-11-24T11:53:59.765Z,10200
2017-11-24T11:55:09.788Z,10300
2017-11-24T11:56:20.361Z,10292
2017-11-24T11:57:30.108Z,10120
2017-11-24T11:58:40.119Z,10044
2017-11-24T11:59:50.134Z,10020
2017-11-24T12:00:59.884Z,9972
2017-11-24T12:02:09.897Z,9868
2017-11-24T12:03:19.929Z,9792
2017-11-24T12:04:29.935Z,9800
2017-11-24T12:05:39.414Z,9824
2017-11-24T12:06:49.171Z,9708
2017-11-24T12:07:59.440Z,9672
2017-11-24T12:09:09.464Z,9660
2017-11-24T12:10:19.482Z,9592
2017-11-24T12:11:29.514Z,9552
2017-11-24T12:12:39.534Z,9576
2017-11-24T12:13:49.308Z,9324
2017-11-24T12:14:59.321Z,9376
2017-11-24T12:16:09.336Z,9340
2017-11-24T12:17:19.350Z,9284
2017-11-24T12:18:29.369Z,9232
2017-11-24T12:19:39.386Z,9216
2017-11-24T12:20:48.868Z,9196
2017-11-24T12:21:58.902Z,9156
2017-11-24T12:23:08.653Z,9120
2017-11-24T12:24:18.707Z,9104
2017-11-24T12:25:28.718Z,9072
2017-11-24T12:26:38.463Z,9072
2017-11-24T12:27:48.519Z,9040
2017-11-24T12:28:58.549Z,9048
2017-11-24T12:30:08.302Z,9112
2017-11-24T12:31:20.325Z,9112
2017-11-24T12:32:30.345Z,9068
2017-11-24T12:33:40.374Z,8996
2017-11-24T12:34:50.397Z,8948
2017-11-24T12:36:00.418Z,8896
2017-11-24T12:37:09.622Z,8808
2017-11-24T12:38:19.641Z,8748
2017-11-24T12:39:29.653Z,8712
2017-11-24T12:40:39.668Z,8672
2017-11-24T12:41:49.680Z,8700
2017-11-24T12:42:59.694Z,8736
2017-11-24T12:44:09.437Z,8804
2017-11-24T12:45:18.912Z,8888
2017-11-24T12:46:28.935Z,9016
2017-11-24T12:47:38.965Z,9184
2017-11-24T12:48:49.013Z,9420
2017-11-24T12:49:59.038Z,9624
2017-11-24T12:51:09.055Z,9736
2017-11-24T12:52:18.801Z,9708
2017-11-24T12:53:28.849Z,9640
2017-11-24T12:54:38.878Z,9492
2017-11-24T12:55:48.910Z,9380
2017-11-24T12:56:58.923Z,9388
2017-11-24T12:58:08.668Z,9424
2017-11-24T12:59:17.885Z,9472
2017-11-24T13:00:27.902Z,9460
2017-11-24T13:01:37.919Z,9444
2017-11-24T13:02:47.940Z,9428
2017-11-24T13:03:57.987Z,9312
2017-11-24T13:05:07.734Z,7976
2017-11-24T13:06:17.744Z,5576
2017-11-24T13:07:27.783Z,4576
2017-11-24T13:08:37.795Z,4212
2017-11-24T13:09:47.810Z,4016
2017-11-24T13:10:57.568Z,4136
2017-11-24T13:12:07.590Z,4340
2017-11-24T13:13:17.617Z,4412
2017-11-24T13:14:27.632Z,3724
2017-11-24T13:15:37.651Z,3400
2017-11-24T13:16:47.676Z,3424
2017-11-24T13:17:57.424Z,3268
2017-11-24T13:19:07.177Z,3040
2017-11-24T13:20:17.195Z,2968
2017-11-24T13:21:27.221Z,2920
2017-11-24T13:22:36.968Z,2864
2017-11-24T13:23:46.976Z,2804
2017-11-24T13:24:56.724Z,2684
2017-11-24T13:26:06.734Z,2560
2017-11-24T13:27:16.474Z,2424
2017-11-24T13:28:26.490Z,2300
2017-11-24T13:29:36.508Z,2172
2017-11-24T13:30:46.521Z,2036
2017-11-24T13:31:56.536Z,1916
2017-11-24T13:33:06.553Z,1808
2017-11-24T13:34:16.563Z,1716
2017-11-24T13:35:25.779Z,1636
2017-11-24T13:36:35.854Z,1556
2017-11-24T13:37:45.611Z,1480
2017-11-24T13:38:55.620Z,1404
2017-11-24T13:40:05.361Z,1340
2017-11-24T13:41:15.098Z,1300
2017-11-24T13:42:25.113Z,1264
2017-11-24T13:43:34.854Z,1232
2017-11-24T13:44:44.605Z,1204
2017-11-24T13:45:54.613Z,1192
2017-11-24T13:47:04.634Z,1168
2017-11-24T13:48:14.649Z,1140
2017-11-24T13:49:24.666Z,1112
2017-11-24T13:50:34.672Z,1080
2017-11-24T13:51:44.448Z,1056
2017-11-24T13:52:53.925Z,1028
2017-11-24T13:54:03.953Z,996
2017-11-24T13:55:13.986Z,968
2017-11-24T13:56:23.998Z,944
2017-11-24T13:57:34.003Z,916
2017-11-24T13:58:43.469Z,896
2017-11-24T13:59:53.480Z,868
2017-11-24T14:01:03.509Z,844
2017-11-24T14:02:13.524Z,816
2017-11-24T14:03:23.536Z,780
2017-11-24T14:04:33.555Z,748
2017-11-24T14:05:43.571Z,716
2017-11-24T14:06:53.628Z,684
2017-11-24T14:08:03.361Z,664
2017-11-24T14:09:13.101Z,648
2017-11-24T14:10:22.853Z,632
2017-11-24T14:11:32.601Z,612
2017-11-24T14:12:42.338Z,584
2017-11-24T14:13:52.353Z,560
2017-11-24T14:15:02.384Z,532
2017-11-24T14:16:12.407Z,500
2017-11-24T14:17:22.417Z,472
2017-11-24T14:18:31.901Z,448
2017-11-24T14:19:41.909Z,428
2017-11-24T14:20:51.657Z,404
2017-11-24T14:22:01.674Z,388
2017-11-24T14:23:11.424Z,368
2017-11-24T14:24:21.161Z,348
2017-11-24T14:25:31.171Z,332
2017-11-24T14:26:40.916Z,308
2017-11-24T14:27:50.923Z,292
2017-11-24T14:29:00.942Z,268
2017-11-24T14:30:10.428Z,252
2017-11-24T14:31:20.429Z,236
2017-11-24T14:32:30.439Z,220
2017-11-24T14:33:40.456Z,204
2017-11-24T14:34:50.468Z,192
2017-11-24T14:36:00.479Z,176
2017-11-24T14:37:10.490Z,160
2017-11-24T14:38:20.229Z,144
2017-11-24T14:39:30.234Z,132
2017-11-24T14:40:40.244Z,116
2017-11-24T14:41:49.978Z,108
2017-11-24T14:42:59.986Z,100
2017-11-24T14:44:11.015Z,88
2017-11-24T14:45:21.051Z,80
2017-11-24T14:46:30.791Z,68
2017-11-24T14:47:40.534Z,64
2017-11-24T14:48:50.548Z,56
2017-11-24T14:50:00.572Z,52
2017-11-24T14:51:10.311Z,44
2017-11-24T14:52:20.320Z,40
2017-11-24T14:53:30.332Z,36
2017-11-24T14:54:40.338Z,32
2017-11-24T14:55:50.352Z,28
2017-11-24T14:57:00.358Z,24
2017-11-24T14:58:10.095Z,20
2017-11-24T14:59:20.109Z,20
2017-11-24T15:00:30.109Z,16
2017-11-24T15:01:40.115Z,12
2017-11-24T15:02:49.856Z,12
2017-11-24T15:03:59.869Z,8
2017-11-24T15:05:09.885Z,8
2017-11-24T15:06:19.910Z,8
2017-11-24T15:07:29.917Z,8
2017-11-24T15:08:39.923Z,8
2017-11-24T15:09:49.937Z,4
2017-11-24T15:10:59.693Z,8
2017-11-24T15:12:09.723Z,4
2017-11-24T15:13:19.191Z,4
2017-11-24T15:14:29.198Z,4
2017-11-24T15:15:39.216Z,4
2017-11-24T15:16:49.231Z,0
2017-11-24T15:17:59.251Z,0
2017-11-24T15:19:09.259Z,4
2017-11-24T15:20:19.863Z,4
2017-11-24T15:21:29.617Z,4
2017-11-24T15:22:39.640Z,0
2017-11-24T15:23:49.380Z,0
2017-11-24T15:24:59.118Z,0
2017-11-24T15:26:08.861Z,0
2017-11-24T15:27:18.857Z,0
2017-11-24T15:28:28.870Z,0
2017-11-24T15:29:38.874Z,0
2017-11-24T15:30:48.621Z,0
2017-11-24T15:31:58.629Z,0
2017-11-24T15:33:08.106Z,0
2017-11-24T15:34:17.852Z,0
2017-11-24T15:35:27.882Z,0
2017-11-24T15:36:37.894Z,0
2017-11-24T15:37:47.911Z,0
2017-11-24T15:38:57.652Z,0
2017-11-24T15:40:07.668Z,0
2017-11-24T15:41:17.681Z,0
2017-11-24T15:42:27.703Z,0
2017-11-24T15:43:37.451Z,0
2017-11-24T15:44:47.472Z,0
2017-11-24T15:45:57.517Z,0
2017-11-24T15:47:07.282Z,0
2017-11-24T15:48:17.290Z,0
2017-11-24T15:49:26.499Z,0
2017-11-24T15:50:36.518Z,0
2017-11-24T15:51:46.269Z,0
2017-11-24T15:52:56.281Z,0
2017-11-24T15:54:06.295Z,0
2017-11-24T15:55:16.041Z,0
2017-11-24T15:56:25.787Z,0
2017-11-24T15:57:35.873Z,0
2017-11-24T15:58:45.885Z,0
2017-11-24T15:59:55.922Z,0
2017-11-24T16:01:05.943Z,0
2017-11-24T16:02:15.957Z,0
2017-11-24T16:03:25.975Z,0
2017-11-24T16:04:35.986Z,0
2017-11-24T16:05:45.998Z,0
2017-11-24T16:06:55.753Z,0
2017-11-24T16:08:05.774Z,0
2017-11-24T16:09:15.795Z,0
2017-11-24T16:10:25.832Z,0
2017-11-24T16:11:35.843Z,0
2017-11-24T16:12:45.864Z,0
2017-11-24T16:13:55.887Z,0
2017-11-24T16:15:05.360Z,0
2017-11-24T16:16:15.097Z,0
2017-11-24T16:17:25.110Z,0
2017-11-24T16:18:34.857Z,0
2017-11-24T16:19:44.598Z,0
2017-11-24T16:20:54.613Z,0
2017-11-24T16:22:04.620Z,0
2017-11-24T16:23:14.633Z,0
2017-11-24T16:24:24.678Z,0
2017-11-24T16:25:34.717Z,0
2017-11-24T16:26:43.886Z,0
2017-11-24T16:27:53.918Z,0
2017-11-24T16:29:03.926Z,0